The Vly, New York
Current Conditions -  °F | °C
As of 11:53 AM on Monday 22 Dec 2014 (Local Time) from KPOU Reporting Station
Overcast Overcast  
Wind Chill: 36°   Ceiling: 1500
Heat Index: 36°   Visibility: 8mi
Dew Point: 30°   Wind: 0mph
Humidity: 79%   Direction: NA
Pressure: 30.32"   Gusts: NA
Location:  41.8715°N, 74.1782°W
Report Text: KPOU 221653Z 00000KT 8SM OVC015 02/M01 A3032 RMK AO2 SLP265 T00221011
Loading
Personal Weather Stations






























Interactive Weather Map New forecast layout! Learn more

10-Day Weather Forecast

Advertisements
Track Severe Weather on mobile